Time;durP1;ratioP1;P1;durP2;ratioP2;P2;SDS_P1;SDS_P2;PMS_P1;PMS_P2;Temp;Humidity;BMP_temperature;BMP_pressure;BME280_temperature;BME280_humidity;BME280_pressure;Samples;Min_cycle;Max_cycle;Signal;HPM_P1;HPM_P2
2024/03/18 00:01:27;;;;;;;67.35;24.95;;;;;;;;;;5101243;28;20020;-67
2024/03/18 00:03:52;;;;;;;80.68;25.83;;;;;;;;;;5109080;28;20039;-68
2024/03/18 00:06:17;;;;;;;64.07;24.95;;;;;;;;;;5107686;28;20027;-69
2024/03/18 00:08:45;;;;;;;80.70;25.98;;;;;;;;;;5097588;28;20390;-66
2024/03/18 00:11:11;;;;;;;72.28;24.67;;;;;;;;;;5096106;28;20032;-67
2024/03/18 00:13:37;;;;;;;65.95;24.15;;;;;;;;;;5094016;28;20089;-66
2024/03/18 00:16:02;;;;;;;76.18;25.48;;;;;;;;;;5098700;28;20028;-64
2024/03/18 00:18:28;;;;;;;75.35;23.70;;;;;;;;;;5101334;28;20092;-66
2024/03/18 00:20:53;;;;;;;76.95;24.50;;;;;;;;;;5074344;28;20107;-69
2024/03/18 00:23:19;;;;;;;59.42;22.50;;;;;;;;;;5101745;28;20034;-70
2024/03/18 00:25:44;;;;;;;70.90;24.25;;;;;;;;;;5110912;28;20019;-68
2024/03/18 00:28:10;;;;;;;67.05;23.98;;;;;;;;;;5109494;28;20024;-69
2024/03/18 00:30:35;;;;;;;77.22;23.10;;;;;;;;;;5110735;28;20031;-69
2024/03/18 00:33:01;;;;;;;73.25;23.10;;;;;;;;;;5107168;28;20451;-69
2024/03/18 00:35:26;;;;;;;72.03;23.13;;;;;;;;;;5105102;28;20073;-69
2024/03/18 00:37:51;;;;;;;70.60;23.50;;;;;;;;;;5112650;28;20016;-69
2024/03/18 00:40:17;;;;;;;73.30;23.40;;;;;;;;;;5105891;28;20089;-69
2024/03/18 00:42:44;;;;;;;68.85;21.90;;;;;;;;;;5099369;28;20020;-69
2024/03/18 00:45:10;;;;;;;62.58;22.25;;;;;;;;;;5098209;28;20027;-70
2024/03/18 00:47:35;;;;;;;64.10;23.75;;;;;;;;;;5102011;28;20031;-68
2024/03/18 00:50:01;;;;;;;67.80;23.60;;;;;;;;;;5111695;28;20061;-67
2024/03/18 00:52:26;;;;;;;65.35;23.25;;;;;;;;;;5112311;28;20051;-67
2024/03/18 00:54:52;;;;;;;72.53;24.67;;;;;;;;;;5103837;28;20036;-69
2024/03/18 00:57:17;;;;;;;72.05;25.33;;;;;;;;;;5100215;28;20022;-69
2024/03/18 00:59:42;;;;;;;69.45;24.08;;;;;;;;;;5104913;28;20019;-69
2024/03/18 01:02:07;;;;;;;71.60;22.77;;;;;;;;;;5095896;28;20016;-67
2024/03/18 01:04:33;;;;;;;68.72;25.08;;;;;;;;;;5094686;28;20371;-67
2024/03/18 01:07:00;;;;;;;64.03;24.20;;;;;;;;;;5095233;28;20032;-64
2024/03/18 01:09:26;;;;;;;72.78;24.95;;;;;;;;;;5100923;28;20127;-67
2024/03/18 01:11:51;;;;;;;75.88;24.60;;;;;;;;;;5114060;28;20098;-68
2024/03/18 01:14:16;;;;;;;75.00;25.02;;;;;;;;;;5111588;28;20160;-65
2024/03/18 01:16:42;;;;;;;68.13;24.27;;;;;;;;;;5102237;28;20442;-69
2024/03/18 01:19:07;;;;;;;79.50;24.40;;;;;;;;;;5111544;28;20027;-67
2024/03/18 01:21:32;;;;;;;81.03;25.10;;;;;;;;;;5109212;28;20019;-69
2024/03/18 01:23:58;;;;;;;73.22;26.05;;;;;;;;;;5096394;28;20358;-69
2024/03/18 01:26:23;;;;;;;77.93;25.05;;;;;;;;;;5107091;28;20032;-64
2024/03/18 01:28:48;;;;;;;67.32;24.42;;;;;;;;;;5109095;28;20031;-67
2024/03/18 01:31:14;;;;;;;72.07;25.35;;;;;;;;;;5107323;28;20476;-70
2024/03/18 01:33:39;;;;;;;78.30;25.88;;;;;;;;;;5107466;28;20039;-69
2024/03/18 01:36:04;;;;;;;74.70;25.50;;;;;;;;;;5109161;28;20096;-70
2024/03/18 01:38:30;;;;;;;71.93;24.80;;;;;;;;;;5110048;28;20037;-71
2024/03/18 01:40:55;;;;;;;74.40;25.08;;;;;;;;;;5097666;28;20028;-67
2024/03/18 01:43:22;;;;;;;73.93;25.45;;;;;;;;;;5093195;28;20032;-68
2024/03/18 01:45:47;;;;;;;74.43;26.52;;;;;;;;;;5097899;28;20054;-63
2024/03/18 01:48:13;;;;;;;73.00;26.33;;;;;;;;;;5093364;28;20020;-68
2024/03/18 01:50:41;;;;;;;76.88;26.00;;;;;;;;;;5096490;28;20036;-68
2024/03/18 01:53:07;;;;;;;82.63;24.15;;;;;;;;;;5106404;28;20044;-67
2024/03/18 01:55:32;;;;;;;69.68;26.08;;;;;;;;;;5093983;28;20460;-68
2024/03/18 01:57:58;;;;;;;79.60;27.33;;;;;;;;;;5096906;28;20020;-68
2024/03/18 02:00:32;;;;;;;69.57;25.83;;;;;;;;;;5107151;28;20046;-68
2024/03/18 02:02:57;;;;;;;77.18;25.98;;;;;;;;;;5093267;28;20044;-69
2024/03/18 02:05:22;;;;;;;91.82;27.13;;;;;;;;;;5098171;28;20116;-69
2024/03/18 02:07:48;;;;;;;81.93;27.25;;;;;;;;;;5094193;28;20024;-69
2024/03/18 02:10:14;;;;;;;81.85;26.90;;;;;;;;;;5095800;28;20039;-67
2024/03/18 02:12:39;;;;;;;80.88;26.98;;;;;;;;;;5094290;28;20038;-68
2024/03/18 02:15:05;;;;;;;77.03;26.77;;;;;;;;;;5096176;28;20020;-69
2024/03/18 02:17:30;;;;;;;71.90;26.80;;;;;;;;;;5095782;28;20024;-68
2024/03/18 02:19:56;;;;;;;77.30;26.67;;;;;;;;;;5098080;28;20354;-69
2024/03/18 02:22:21;;;;;;;97.43;28.98;;;;;;;;;;5096515;28;20626;-67
2024/03/18 02:24:47;;;;;;;83.75;27.02;;;;;;;;;;5107992;28;20024;-68
2024/03/18 02:27:13;;;;;;;84.10;28.48;;;;;;;;;;5105816;28;20058;-69
2024/03/18 02:29:38;;;;;;;91.35;27.13;;;;;;;;;;5102564;28;20089;-69
2024/03/18 02:32:04;;;;;;;93.70;27.17;;;;;;;;;;5101007;28;20028;-68
2024/03/18 02:34:30;;;;;;;74.80;25.15;;;;;;;;;;5096294;28;20397;-67
2024/03/18 02:36:55;;;;;;;79.93;27.95;;;;;;;;;;5095025;28;20108;-68
2024/03/18 02:39:22;;;;;;;83.15;26.73;;;;;;;;;;5094188;28;20111;-64
2024/03/18 02:41:48;;;;;;;80.20;27.67;;;;;;;;;;5094757;28;20024;-68
2024/03/18 02:44:13;;;;;;;86.40;27.77;;;;;;;;;;5093319;28;21936;-69
2024/03/18 02:46:38;;;;;;;79.50;27.85;;;;;;;;;;5095470;28;20028;-68
2024/03/18 02:49:04;;;;;;;97.60;29.33;;;;;;;;;;5093412;28;20075;-68
2024/03/18 02:51:29;;;;;;;77.47;27.75;;;;;;;;;;5096937;28;20403;-68
2024/03/18 02:53:54;;;;;;;91.50;30.38;;;;;;;;;;5104191;28;20336;-67
2024/03/18 02:56:20;;;;;;;89.85;31.20;;;;;;;;;;5105684;28;20482;-68
2024/03/18 02:58:45;;;;;;;85.15;29.50;;;;;;;;;;5099552;28;20035;-68
2024/03/18 03:01:10;;;;;;;89.55;30.90;;;;;;;;;;5104434;28;20072;-69
2024/03/18 03:03:36;;;;;;;84.90;30.25;;;;;;;;;;5116275;28;20026;-68
2024/03/18 03:06:04;;;;;;;83.85;30.83;;;;;;;;;;5101662;28;20100;-68
2024/03/18 03:08:29;;;;;;;83.85;31.20;;;;;;;;;;5104673;28;20031;-68
2024/03/18 03:10:55;;;;;;;91.35;31.27;;;;;;;;;;5106735;28;20024;-68
2024/03/18 03:13:20;;;;;;;84.97;31.25;;;;;;;;;;5101564;28;20023;-69
2024/03/18 03:15:46;;;;;;;95.10;31.52;;;;;;;;;;5113970;28;20378;-69
2024/03/18 03:18:11;;;;;;;92.43;31.25;;;;;;;;;;5114796;28;20073;-69
2024/03/18 03:20:36;;;;;;;81.50;31.17;;;;;;;;;;5106991;28;20019;-69
2024/03/18 03:23:01;;;;;;;89.55;32.03;;;;;;;;;;5108912;28;20035;-67
2024/03/18 03:25:27;;;;;;;91.38;32.38;;;;;;;;;;5108729;28;20080;-68
2024/03/18 03:27:58;;;;;;;86.93;30.88;;;;;;;;;;5108921;28;20045;-66
2024/03/18 03:30:24;;;;;;;82.55;31.65;;;;;;;;;;5110388;28;20124;-64
2024/03/18 03:32:49;;;;;;;84.45;32.95;;;;;;;;;;5113973;28;20110;-69
2024/03/18 03:35:14;;;;;;;83.57;32.63;;;;;;;;;;5103257;28;20054;-68
2024/03/18 03:37:40;;;;;;;87.65;32.67;;;;;;;;;;5094994;28;20028;-68
2024/03/18 03:40:07;;;;;;;97.95;35.10;;;;;;;;;;5094798;28;20020;-68
2024/03/18 03:42:32;;;;;;;96.40;33.20;;;;;;;;;;5096423;28;20024;-68
2024/03/18 03:44:57;;;;;;;97.80;32.83;;;;;;;;;;5097282;28;20097;-68
2024/03/18 03:47:23;;;;;;;86.32;32.35;;;;;;;;;;5095024;28;20035;-67
2024/03/18 03:49:48;;;;;;;89.25;34.38;;;;;;;;;;5095626;28;20098;-68
2024/03/18 03:52:13;;;;;;;101.25;34.08;;;;;;;;;;5095002;28;20341;-67
2024/03/18 03:54:39;;;;;;;97.68;33.83;;;;;;;;;;5097593;28;20031;-68
2024/03/18 03:57:05;;;;;;;101.90;33.83;;;;;;;;;;5098802;28;20447;-67
2024/03/18 03:59:30;;;;;;;93.25;32.92;;;;;;;;;;5108117;28;20492;-68
2024/03/18 04:01:56;;;;;;;93.60;31.02;;;;;;;;;;5103955;28;20078;-62
2024/03/18 04:04:23;;;;;;;98.53;34.33;;;;;;;;;;5098405;28;20056;-67
2024/03/18 04:06:48;;;;;;;100.18;34.60;;;;;;;;;;5100063;28;20034;-68
2024/03/18 04:09:15;;;;;;;97.32;32.97;;;;;;;;;;5105647;28;20024;-69
2024/03/18 04:11:40;;;;;;;95.15;33.13;;;;;;;;;;5098291;28;20445;-69
2024/03/18 04:14:06;;;;;;;97.72;35.25;;;;;;;;;;5097643;28;20089;-70
2024/03/18 04:16:31;;;;;;;92.75;35.03;;;;;;;;;;5096213;28;20024;-68
2024/03/18 04:18:56;;;;;;;92.45;33.63;;;;;;;;;;5096290;28;20074;-67
2024/03/18 04:21:22;;;;;;;89.53;33.55;;;;;;;;;;5105602;28;20035;-69
2024/03/18 04:23:47;;;;;;;90.28;33.28;;;;;;;;;;5102942;28;20028;-68
2024/03/18 04:26:13;;;;;;;89.10;33.00;;;;;;;;;;5099774;28;20020;-68
2024/03/18 04:28:38;;;;;;;98.78;34.63;;;;;;;;;;5106028;28;20358;-67
2024/03/18 04:31:07;;;;;;;97.05;34.33;;;;;;;;;;5106195;28;20024;-69
2024/03/18 04:33:34;;;;;;;103.40;34.92;;;;;;;;;;5114522;28;20039;-68
2024/03/18 04:35:59;;;;;;;98.22;34.65;;;;;;;;;;5101957;28;20090;-67
2024/03/18 04:38:25;;;;;;;97.25;34.15;;;;;;;;;;5107970;28;20123;-68
2024/03/18 04:40:51;;;;;;;100.18;35.05;;;;;;;;;;5107377;28;20031;-69
2024/03/18 04:43:17;;;;;;;98.10;34.47;;;;;;;;;;5107843;28;20291;-67
2024/03/18 04:45:43;;;;;;;96.57;34.50;;;;;;;;;;5097129;28;20114;-67
2024/03/18 04:48:10;;;;;;;110.60;35.15;;;;;;;;;;5097245;28;20112;-70
2024/03/18 04:50:35;;;;;;;109.35;34.30;;;;;;;;;;5096535;28;20403;-69
2024/03/18 04:53:01;;;;;;;106.55;35.45;;;;;;;;;;5095959;28;20066;-68
2024/03/18 04:55:26;;;;;;;103.63;33.97;;;;;;;;;;5095871;28;20466;-68
2024/03/18 04:57:52;;;;;;;96.65;34.47;;;;;;;;;;5095482;28;20031;-69
2024/03/18 05:00:18;;;;;;;96.15;34.40;;;;;;;;;;5094720;28;20070;-70
2024/03/18 05:02:44;;;;;;;92.35;34.80;;;;;;;;;;5101906;28;20032;-70
2024/03/18 05:05:10;;;;;;;101.32;35.13;;;;;;;;;;5097779;28;20028;-71
2024/03/18 05:07:38;;;;;;;98.88;34.38;;;;;;;;;;5094303;28;20340;-70
2024/03/18 05:10:04;;;;;;;99.07;35.38;;;;;;;;;;5094409;28;20047;-68
2024/03/18 05:12:30;;;;;;;92.47;34.55;;;;;;;;;;5100610;28;20024;-64
2024/03/18 05:14:55;;;;;;;101.82;37.10;;;;;;;;;;5108458;28;20030;-68
2024/03/18 05:17:22;;;;;;;97.20;34.47;;;;;;;;;;5095485;28;20093;-67
2024/03/18 05:19:48;;;;;;;111.07;34.75;;;;;;;;;;5095524;28;20469;-67
2024/03/18 05:22:13;;;;;;;106.22;36.03;;;;;;;;;;5098784;28;20056;-66
2024/03/18 05:24:43;;;;;;;83.72;33.28;;;;;;;;;;5096157;28;20028;-60
2024/03/18 05:27:08;;;;;;;96.07;34.33;;;;;;;;;;5104669;28;20023;-68
2024/03/18 05:29:34;;;;;;;106.38;34.63;;;;;;;;;;5107077;28;20084;-68
2024/03/18 05:32:05;;;;;;;94.10;33.70;;;;;;;;;;5113745;28;20016;-68
2024/03/18 05:34:30;;;;;;;99.85;34.25;;;;;;;;;;5110175;28;20382;-65
2024/03/18 05:36:55;;;;;;;95.90;34.92;;;;;;;;;;5107457;28;20070;-67
2024/03/18 05:39:20;;;;;;;100.05;33.20;;;;;;;;;;5103896;28;20028;-67
2024/03/18 05:41:47;;;;;;;107.28;35.78;;;;;;;;;;5108898;28;20060;-67
2024/03/18 05:44:12;;;;;;;109.57;33.67;;;;;;;;;;5110276;28;20054;-67
2024/03/18 05:46:38;;;;;;;101.75;35.47;;;;;;;;;;5097912;28;20430;-67
2024/03/18 05:49:04;;;;;;;98.18;35.75;;;;;;;;;;5098123;28;20024;-67
2024/03/18 05:51:29;;;;;;;97.07;33.85;;;;;;;;;;5096079;28;20076;-65
2024/03/18 05:53:54;;;;;;;102.38;35.38;;;;;;;;;;5093631;28;20108;-64
2024/03/18 05:56:20;;;;;;;92.43;34.10;;;;;;;;;;5104800;28;20361;-74
2024/03/18 05:58:45;;;;;;;97.75;37.00;;;;;;;;;;5094249;28;20032;-68
2024/03/18 06:01:10;;;;;;;98.40;37.10;;;;;;;;;;5103585;28;20024;-66
2024/03/18 06:03:45;;;;;;;96.57;35.45;;;;;;;;;;5092343;28;20035;-67
2024/03/18 06:06:10;;;;;;;100.57;34.95;;;;;;;;;;5110329;28;20028;-69
2024/03/18 06:08:36;;;;;;;88.63;33.45;;;;;;;;;;5113025;28;20027;-68
2024/03/18 06:11:01;;;;;;;85.65;35.03;;;;;;;;;;5112012;28;20030;-68
2024/03/18 06:13:27;;;;;;;89.53;34.92;;;;;;;;;;5112513;28;20030;-67
2024/03/18 06:15:52;;;;;;;96.13;36.75;;;;;;;;;;5112512;28;20027;-67
2024/03/18 06:18:17;;;;;;;100.85;37.35;;;;;;;;;;5112398;28;20110;-67
2024/03/18 06:20:44;;;;;;;98.95;36.38;;;;;;;;;;5110520;28;20020;-67
2024/03/18 06:23:16;;;;;;;103.95;37.63;;;;;;;;;;5112545;28;20117;-68
2024/03/18 06:25:59;;;;;;;88.63;35.28;;;;;;;;;;5112076;28;20148;-68
2024/03/18 06:28:29;;;;;;;102.47;36.80;;;;;;;;;;5110636;28;20449;-67
2024/03/18 06:30:55;;;;;;;110.70;36.28;;;;;;;;;;5071991;28;20024;-69
2024/03/18 06:33:21;;;;;;;91.50;35.67;;;;;;;;;;5072308;28;20040;-68
2024/03/18 06:35:47;;;;;;;102.85;36.05;;;;;;;;;;5098794;28;20110;-68
2024/03/18 06:38:12;;;;;;;93.32;36.53;;;;;;;;;;5116854;28;20102;-68
2024/03/18 06:40:39;;;;;;;101.22;36.22;;;;;;;;;;5116620;28;20149;-67
2024/03/18 06:43:04;;;;;;;89.78;35.78;;;;;;;;;;5115788;28;20031;-66
2024/03/18 06:45:30;;;;;;;97.32;36.08;;;;;;;;;;5099801;28;20032;-67
2024/03/18 06:47:55;;;;;;;106.88;35.83;;;;;;;;;;5096520;28;20110;-67
2024/03/18 06:50:21;;;;;;;97.82;35.00;;;;;;;;;;5095886;28;20036;-68
2024/03/18 06:52:46;;;;;;;102.25;34.78;;;;;;;;;;5098982;28;20514;-69
2024/03/18 06:55:12;;;;;;;99.45;35.08;;;;;;;;;;5116408;28;20074;-67
2024/03/18 06:57:37;;;;;;;104.03;35.50;;;;;;;;;;5116776;28;20084;-67
2024/03/18 07:00:06;;;;;;;104.68;37.42;;;;;;;;;;5116675;28;20430;-66
2024/03/18 07:02:31;;;;;;;117.18;37.58;;;;;;;;;;5116402;28;20015;-66
2024/03/18 07:04:56;;;;;;;100.85;33.08;;;;;;;;;;5116345;28;20024;-68
2024/03/18 07:07:22;;;;;;;104.40;35.75;;;;;;;;;;5115828;28;20345;-67
2024/03/18 07:09:48;;;;;;;106.90;34.55;;;;;;;;;;5114949;28;20118;-67
2024/03/18 07:12:14;;;;;;;103.15;34.42;;;;;;;;;;5115942;28;20453;-67
2024/03/18 07:14:41;;;;;;;97.22;34.13;;;;;;;;;;5116592;28;20020;-67
2024/03/18 07:17:07;;;;;;;101.03;35.92;;;;;;;;;;5116139;28;20031;-66
2024/03/18 07:19:32;;;;;;;95.88;32.30;;;;;;;;;;5114299;28;20019;-68
2024/03/18 07:22:00;;;;;;;88.85;33.45;;;;;;;;;;5115707;28;20031;-66
2024/03/18 07:24:26;;;;;;;89.60;33.63;;;;;;;;;;5116101;28;20011;-68
2024/03/18 07:26:51;;;;;;;81.03;31.80;;;;;;;;;;5114731;28;20043;-69
2024/03/18 07:29:19;;;;;;;92.82;33.90;;;;;;;;;;5115464;28;20073;-70
2024/03/18 07:31:44;;;;;;;78.68;32.55;;;;;;;;;;5116110;28;20098;-68
2024/03/18 07:34:09;;;;;;;82.10;31.17;;;;;;;;;;5114525;27;20104;-70
2024/03/18 07:36:36;;;;;;;96.80;34.90;;;;;;;;;;5116543;28;20028;-71
2024/03/18 07:39:04;;;;;;;88.60;34.03;;;;;;;;;;5116298;28;20450;-71
2024/03/18 07:41:30;;;;;;;87.90;34.55;;;;;;;;;;5116091;28;20051;-69
2024/03/18 07:43:56;;;;;;;100.70;35.70;;;;;;;;;;5110912;28;20039;-71
2024/03/18 07:46:22;;;;;;;82.32;34.30;;;;;;;;;;5095258;28;20441;-69
2024/03/18 07:48:48;;;;;;;96.63;35.60;;;;;;;;;;5093950;28;20043;-70
2024/03/18 07:51:13;;;;;;;90.85;32.72;;;;;;;;;;5094285;28;20027;-74
2024/03/18 07:53:39;;;;;;;86.32;36.60;;;;;;;;;;5095261;28;20051;-68
2024/03/18 07:56:04;;;;;;;88.05;32.67;;;;;;;;;;5095144;28;20032;-71
2024/03/18 07:58:30;;;;;;;78.15;32.45;;;;;;;;;;5094650;28;20424;-72
2024/03/18 08:00:55;;;;;;;85.65;33.70;;;;;;;;;;5094452;28;20028;-71
2024/03/18 08:03:24;;;;;;;79.28;32.72;;;;;;;;;;5094739;28;20020;-72
2024/03/18 08:05:53;;;;;;;90.57;35.50;;;;;;;;;;5094627;28;20031;-72
2024/03/18 08:08:18;;;;;;;94.93;36.10;;;;;;;;;;5095192;28;20385;-72
2024/03/18 08:10:44;;;;;;;90.53;37.05;;;;;;;;;;5094394;28;20107;-72
2024/03/18 08:13:09;;;;;;;86.10;36.80;;;;;;;;;;5094357;28;20023;-64
2024/03/18 08:15:35;;;;;;;88.57;36.55;;;;;;;;;;5094684;28;20024;-72
2024/03/18 08:18:01;;;;;;;100.50;36.95;;;;;;;;;;5094372;28;20082;-72
2024/03/18 08:20:26;;;;;;;87.80;36.55;;;;;;;;;;5095130;28;20046;-70
2024/03/18 08:22:51;;;;;;;90.53;36.67;;;;;;;;;;5090244;28;20073;-67
2024/03/18 08:25:17;;;;;;;114.03;38.38;;;;;;;;;;5087444;28;20435;-66
2024/03/18 08:27:43;;;;;;;85.28;35.92;;;;;;;;;;5092524;28;20032;-64
2024/03/18 08:30:08;;;;;;;86.28;36.10;;;;;;;;;;5092631;28;20408;-62
2024/03/18 08:32:34;;;;;;;82.43;36.25;;;;;;;;;;5088182;28;20063;-65
2024/03/18 08:35:00;;;;;;;81.93;35.67;;;;;;;;;;5092670;28;20202;-64
2024/03/18 08:37:25;;;;;;;93.80;36.95;;;;;;;;;;5092642;28;20438;-64
2024/03/18 08:39:54;;;;;;;78.25;32.55;;;;;;;;;;5085951;28;20032;-68
2024/03/18 08:42:19;;;;;;;79.28;33.65;;;;;;;;;;5089186;28;20023;-66
2024/03/18 08:44:47;;;;;;;83.45;33.90;;;;;;;;;;5091847;28;20020;-66
2024/03/18 08:47:12;;;;;;;78.90;34.78;;;;;;;;;;5092771;28;20350;-65
2024/03/18 08:49:37;;;;;;;92.47;34.30;;;;;;;;;;5093953;28;20039;-66
2024/03/18 08:52:03;;;;;;;78.28;32.55;;;;;;;;;;5090615;28;20083;-65
2024/03/18 08:54:30;;;;;;;76.50;32.75;;;;;;;;;;5093071;28;20420;-74
2024/03/18 08:56:56;;;;;;;81.90;31.85;;;;;;;;;;5091607;28;20033;-64
2024/03/18 08:59:21;;;;;;;76.38;32.63;;;;;;;;;;5098885;28;20429;-61
2024/03/18 09:01:48;;;;;;;87.63;32.40;;;;;;;;;;5113502;28;20024;-62
2024/03/18 09:04:14;;;;;;;81.80;32.08;;;;;;;;;;5112331;28;20019;-65
2024/03/18 09:06:39;;;;;;;76.75;31.48;;;;;;;;;;5113621;28;20323;-67
2024/03/18 09:09:06;;;;;;;81.78;31.67;;;;;;;;;;5094070;28;20032;-64
2024/03/18 09:11:31;;;;;;;73.55;30.00;;;;;;;;;;5072964;28;20143;-65
2024/03/18 09:13:57;;;;;;;68.53;29.35;;;;;;;;;;5081398;28;20103;-72
2024/03/18 09:16:22;;;;;;;74.38;30.67;;;;;;;;;;5112381;28;20032;-67
2024/03/18 09:18:47;;;;;;;71.32;29.23;;;;;;;;;;5113382;28;20020;-66
2024/03/18 09:21:12;;;;;;;74.07;29.48;;;;;;;;;;5113193;28;20023;-64
2024/03/18 09:23:38;;;;;;;68.40;27.48;;;;;;;;;;5098373;28;20150;-67
2024/03/18 09:26:03;;;;;;;66.80;29.48;;;;;;;;;;5107088;28;20026;-70
2024/03/18 09:28:28;;;;;;;72.32;31.35;;;;;;;;;;5113193;28;20062;-68
2024/03/18 09:31:01;;;;;;;64.25;29.23;;;;;;;;;;5113144;28;20131;-63
2024/03/18 09:33:27;;;;;;;75.22;30.15;;;;;;;;;;5087538;28;20028;-69
2024/03/18 09:35:53;;;;;;;74.70;30.63;;;;;;;;;;5071181;28;20445;-70
2024/03/18 09:38:18;;;;;;;82.88;31.33;;;;;;;;;;5087502;28;20027;-70
2024/03/18 09:40:44;;;;;;;66.55;31.20;;;;;;;;;;5102046;28;20097;-68
2024/03/18 09:43:10;;;;;;;80.68;31.15;;;;;;;;;;5092240;28;20372;-68
2024/03/18 09:45:36;;;;;;;77.43;31.58;;;;;;;;;;5092475;28;20350;-67
2024/03/18 09:48:02;;;;;;;78.30;31.85;;;;;;;;;;5096199;28;20016;-69
2024/03/18 09:50:27;;;;;;;75.78;32.03;;;;;;;;;;5112089;28;20054;-66
2024/03/18 09:52:54;;;;;;;74.25;30.55;;;;;;;;;;5106075;28;20055;-70
2024/03/18 09:55:19;;;;;;;78.93;30.88;;;;;;;;;;5091918;28;20473;-65
2024/03/18 09:57:46;;;;;;;63.88;27.67;;;;;;;;;;5094291;28;20043;-66
2024/03/18 10:00:12;;;;;;;73.63;30.67;;;;;;;;;;5082782;28;20135;-65
2024/03/18 10:02:37;;;;;;;68.32;30.08;;;;;;;;;;5091202;28;20028;-66
2024/03/18 10:05:08;;;;;;;79.07;31.02;;;;;;;;;;5090776;28;20035;-75
2024/03/18 10:07:34;;;;;;;71.75;30.83;;;;;;;;;;5090357;28;20023;-65
2024/03/18 10:09:59;;;;;;;82.22;32.90;;;;;;;;;;5091338;28;20036;-68
2024/03/18 10:12:25;;;;;;;79.88;32.15;;;;;;;;;;5091798;28;20388;-66
2024/03/18 10:14:50;;;;;;;75.90;31.02;;;;;;;;;;5091590;28;20028;-70
2024/03/18 10:17:16;;;;;;;69.47;29.60;;;;;;;;;;5079905;28;20456;-69
2024/03/18 10:19:44;;;;;;;75.38;31.05;;;;;;;;;;5080548;28;20126;-69
2024/03/18 10:22:10;;;;;;;75.63;31.13;;;;;;;;;;5076147;28;20020;-66
2024/03/18 10:24:38;;;;;;;76.95;32.03;;;;;;;;;;5086507;28;20097;-66
2024/03/18 10:27:03;;;;;;;65.18;29.08;;;;;;;;;;5079132;28;20120;-66
2024/03/18 10:29:28;;;;;;;75.88;31.83;;;;;;;;;;5070950;28;20067;-71
2024/03/18 10:31:54;;;;;;;77.05;31.58;;;;;;;;;;5072464;28;20017;-67
2024/03/18 10:34:21;;;;;;;87.18;33.70;;;;;;;;;;5081103;28;20063;-70
2024/03/18 10:36:49;;;;;;;78.47;31.20;;;;;;;;;;5075436;28;20023;-71
2024/03/18 10:39:19;;;;;;;80.53;32.88;;;;;;;;;;5073606;28;20119;-70
2024/03/18 10:41:44;;;;;;;79.72;31.70;;;;;;;;;;5090041;28;20097;-70
2024/03/18 10:44:17;;;;;;;77.88;30.80;;;;;;;;;;5090922;28;20403;-71
2024/03/18 10:46:46;;;;;;;73.50;31.15;;;;;;;;;;5091960;28;20024;-70
2024/03/18 10:49:16;;;;;;;73.60;31.70;;;;;;;;;;5090100;28;20392;-71
2024/03/18 10:51:44;;;;;;;95.90;31.48;;;;;;;;;;5090282;28;20068;-69
2024/03/18 10:54:12;;;;;;;82.25;30.13;;;;;;;;;;5074014;28;20086;-70
2024/03/18 10:56:37;;;;;;;77.75;31.52;;;;;;;;;;5074173;28;20446;-70
2024/03/18 10:59:02;;;;;;;69.60;27.50;;;;;;;;;;5091028;28;20073;-70
2024/03/18 11:01:28;;;;;;;91.20;32.03;;;;;;;;;;5110108;28;20070;-69
2024/03/18 11:03:54;;;;;;;90.22;33.00;;;;;;;;;;5112042;28;20080;-70
2024/03/18 11:06:20;;;;;;;86.50;32.17;;;;;;;;;;5112282;28;20020;-70
2024/03/18 11:08:47;;;;;;;88.00;32.47;;;;;;;;;;5111182;28;20392;-70
2024/03/18 11:11:16;;;;;;;87.53;33.38;;;;;;;;;;5102171;28;20031;-71
2024/03/18 11:13:42;;;;;;;92.60;33.63;;;;;;;;;;5091391;28;20066;-70
2024/03/18 11:16:09;;;;;;;89.75;32.40;;;;;;;;;;5092035;28;20434;-71
2024/03/18 11:18:38;;;;;;;94.47;34.70;;;;;;;;;;5091084;28;20028;-71
2024/03/18 11:21:03;;;;;;;91.25;33.63;;;;;;;;;;5090951;28;20024;-70
2024/03/18 11:23:30;;;;;;;82.95;32.55;;;;;;;;;;5093427;28;20107;-70
2024/03/18 11:25:56;;;;;;;90.30;34.28;;;;;;;;;;5096824;28;20051;-71
2024/03/18 11:28:41;;;;;;;85.90;33.38;;;;;;;;;;5094215;28;20323;-72
2024/03/18 11:31:07;;;;;;;78.85;32.35;;;;;;;;;;5094761;28;20032;-71
2024/03/18 11:33:36;;;;;;;75.05;31.60;;;;;;;;;;5093922;28;20530;-70
2024/03/18 11:36:09;;;;;;;84.18;31.75;;;;;;;;;;5094757;28;20016;-69
2024/03/18 11:38:35;;;;;;;73.32;29.50;;;;;;;;;;5092708;28;20032;-69
2024/03/18 11:41:01;;;;;;;78.57;31.90;;;;;;;;;;5088252;28;20047;-67
2024/03/18 11:43:26;;;;;;;80.90;31.88;;;;;;;;;;5089488;28;20354;-66
2024/03/18 11:45:53;;;;;;;71.68;30.88;;;;;;;;;;5082643;28;20012;-68
2024/03/18 11:48:19;;;;;;;74.55;30.00;;;;;;;;;;5086536;28;20330;-64
2024/03/18 11:50:46;;;;;;;74.88;30.17;;;;;;;;;;5093688;28;20042;-64
2024/03/18 11:53:14;;;;;;;72.72;29.75;;;;;;;;;;5088717;28;20394;-64
2024/03/18 11:55:42;;;;;;;71.03;28.58;;;;;;;;;;5095613;28;20028;-65
2024/03/18 11:58:11;;;;;;;76.47;30.05;;;;;;;;;;5094515;28;20128;-64
2024/03/18 12:00:36;;;;;;;65.95;27.58;;;;;;;;;;5114448;28;20100;-65
2024/03/18 12:03:04;;;;;;;61.88;27.17;;;;;;;;;;5096480;28;20055;-67
2024/03/18 12:05:30;;;;;;;74.68;28.05;;;;;;;;;;5094066;28;20150;-67
2024/03/18 12:07:55;;;;;;;71.57;27.90;;;;;;;;;;5093679;28;20066;-66
2024/03/18 12:10:21;;;;;;;75.63;25.75;;;;;;;;;;5092785;28;20134;-65
2024/03/18 12:12:47;;;;;;;63.22;25.23;;;;;;;;;;5093919;28;20024;-65
2024/03/18 12:15:12;;;;;;;66.75;27.15;;;;;;;;;;5093957;28;20028;-63
2024/03/18 12:17:37;;;;;;;69.88;27.10;;;;;;;;;;5094014;28;20099;-65
2024/03/18 12:20:03;;;;;;;69.25;27.50;;;;;;;;;;5094406;28;20020;-66
2024/03/18 12:22:29;;;;;;;66.93;26.42;;;;;;;;;;5093820;28;20023;-66
2024/03/18 12:30:32;;;;;;;73.72;25.40;;;;;;;;;;5101273;28;20058;-66
2024/03/18 12:33:06;;;;;;;59.10;23.55;;;;;;;;;;5093495;28;20366;-68
2024/03/18 12:35:32;;;;;;;71.57;25.85;;;;;;;;;;5092207;28;20016;-68
2024/03/18 12:37:57;;;;;;;69.60;26.80;;;;;;;;;;5082703;28;20039;-65
2024/03/18 12:40:23;;;;;;;69.40;26.45;;;;;;;;;;5072925;28;20112;-66
2024/03/18 12:42:49;;;;;;;69.82;26.45;;;;;;;;;;5091033;28;20107;-67
2024/03/18 12:45:15;;;;;;;75.60;28.23;;;;;;;;;;5100523;28;20052;-69
2024/03/18 12:47:41;;;;;;;74.28;28.20;;;;;;;;;;5113932;28;20154;-68
2024/03/18 12:50:07;;;;;;;69.22;26.27;;;;;;;;;;5112697;28;20069;-66
2024/03/18 12:52:35;;;;;;;77.63;28.15;;;;;;;;;;5108890;28;20103;-62
2024/03/18 12:55:04;;;;;;;73.45;28.90;;;;;;;;;;5093596;28;20036;-65
2024/03/18 12:57:29;;;;;;;78.35;30.48;;;;;;;;;;5090818;28;20020;-65
2024/03/18 12:59:55;;;;;;;73.13;29.48;;;;;;;;;;5075494;28;20362;-66
2024/03/18 13:02:20;;;;;;;59.88;24.00;;;;;;;;;;5093089;28;20126;-65
2024/03/18 13:04:46;;;;;;;67.53;24.73;;;;;;;;;;5092376;28;20023;-66
2024/03/18 13:07:12;;;;;;;74.70;25.73;;;;;;;;;;5084440;28;20040;-63
2024/03/18 13:09:37;;;;;;;65.60;24.60;;;;;;;;;;5049176;28;20029;-66
2024/03/18 13:12:03;;;;;;;72.72;24.50;;;;;;;;;;5091411;28;20016;-70
2024/03/18 13:14:28;;;;;;;59.53;23.67;;;;;;;;;;5091986;28;20379;-70
2024/03/18 13:16:56;;;;;;;72.90;24.48;;;;;;;;;;5104652;28;20024;-69
2024/03/18 13:19:23;;;;;;;64.45;23.92;;;;;;;;;;5113435;28;20015;-70
2024/03/18 13:21:48;;;;;;;70.90;24.05;;;;;;;;;;5112537;28;20031;-70
2024/03/18 13:24:14;;;;;;;69.18;22.77;;;;;;;;;;5095496;28;20113;-71
2024/03/18 13:26:39;;;;;;;62.72;23.15;;;;;;;;;;5098314;28;20048;-64
2024/03/18 13:29:05;;;;;;;66.60;23.30;;;;;;;;;;5113327;28;20047;-64
2024/03/18 13:31:30;;;;;;;57.67;20.38;;;;;;;;;;5106772;28;20020;-67
2024/03/18 13:33:55;;;;;;;61.72;19.35;;;;;;;;;;5090582;28;20043;-71
2024/03/18 13:36:21;;;;;;;72.70;21.38;;;;;;;;;;5092162;28;20032;-70
2024/03/18 13:38:46;;;;;;;54.42;19.95;;;;;;;;;;5092362;28;20012;-69
2024/03/18 13:41:13;;;;;;;72.22;21.10;;;;;;;;;;5094135;28;20027;-67
2024/03/18 13:43:42;;;;;;;64.63;19.10;;;;;;;;;;5077744;28;20035;-71
2024/03/18 13:46:07;;;;;;;50.53;17.20;;;;;;;;;;5090276;28;20016;-72
2024/03/18 13:48:32;;;;;;;61.97;19.75;;;;;;;;;;5092393;28;20016;-63
2024/03/18 13:50:59;;;;;;;68.95;21.23;;;;;;;;;;5098055;28;20124;-66
2024/03/18 13:53:25;;;;;;;56.50;20.50;;;;;;;;;;5101340;28;20458;-66
2024/03/18 13:55:50;;;;;;;63.00;20.17;;;;;;;;;;5091728;28;20043;-71
2024/03/18 13:58:15;;;;;;;53.83;19.10;;;;;;;;;;5106558;28;20102;-66
2024/03/18 14:00:41;;;;;;;63.67;20.35;;;;;;;;;;5112981;28;20433;-65
2024/03/18 14:03:06;;;;;;;54.00;16.25;;;;;;;;;;5112724;28;20417;-67
2024/03/18 14:05:32;;;;;;;62.13;18.50;;;;;;;;;;5112453;28;20035;-66
2024/03/18 14:07:58;;;;;;;56.72;19.50;;;;;;;;;;5105759;28;20035;-66
2024/03/18 14:10:23;;;;;;;71.30;19.65;;;;;;;;;;5091914;28;20036;-67
2024/03/18 14:12:49;;;;;;;81.60;18.90;;;;;;;;;;5105551;28;20110;-67
2024/03/18 14:15:14;;;;;;;70.97;20.05;;;;;;;;;;5111142;28;20081;-65